sensor_id;sensor_type;location;lat;lon;timestamp;P1;durP1;ratioP1;P2;durP2;ratioP2
7128;SDS011;3606;52.930;8.644;2022-09-20T00:00:36;10.47;;;2.97;;
7128;SDS011;3606;52.930;8.644;2022-09-20T00:03:03;8.43;;;2.90;;
7128;SDS011;3606;52.930;8.644;2022-09-20T00:05:28;10.53;;;3.20;;
7128;SDS011;3606;52.930;8.644;2022-09-20T00:07:57;9.40;;;2.93;;
7128;SDS011;3606;52.930;8.644;2022-09-20T00:10:22;10.70;;;2.53;;
7128;SDS011;3606;52.930;8.644;2022-09-20T00:12:48;14.40;;;3.10;;
7128;SDS011;3606;52.930;8.644;2022-09-20T00:15:14;11.00;;;2.70;;
7128;SDS011;3606;52.930;8.644;2022-09-20T00:17:39;12.60;;;3.37;;
7128;SDS011;3606;52.930;8.644;2022-09-20T00:20:05;8.20;;;2.50;;
7128;SDS011;3606;52.930;8.644;2022-09-20T00:22:31;16.20;;;3.40;;
7128;SDS011;3606;52.930;8.644;2022-09-20T00:24:57;10.77;;;2.83;;
7128;SDS011;3606;52.930;8.644;2022-09-20T00:27:22;14.07;;;3.00;;
7128;SDS011;3606;52.930;8.644;2022-09-20T00:29:48;9.03;;;2.97;;
7128;SDS011;3606;52.930;8.644;2022-09-20T00:32:13;9.43;;;3.17;;
7128;SDS011;3606;52.930;8.644;2022-09-20T00:34:39;9.13;;;2.80;;
7128;SDS011;3606;52.930;8.644;2022-09-20T00:37:23;4.20;;;2.57;;
7128;SDS011;3606;52.930;8.644;2022-09-20T00:39:48;13.00;;;3.50;;
7128;SDS011;3606;52.930;8.644;2022-09-20T00:42:14;9.30;;;2.97;;
7128;SDS011;3606;52.930;8.644;2022-09-20T00:47:25;10.57;;;2.87;;
7128;SDS011;3606;52.930;8.644;2022-09-20T00:52:37;13.13;;;3.00;;
7128;SDS011;3606;52.930;8.644;2022-09-20T00:55:05;12.00;;;2.83;;
7128;SDS011;3606;52.930;8.644;2022-09-20T00:57:32;6.93;;;2.73;;
7128;SDS011;3606;52.930;8.644;2022-09-20T01:00:01;12.17;;;3.30;;
7128;SDS011;3606;52.930;8.644;2022-09-20T01:02:30;8.83;;;2.60;;
7128;SDS011;3606;52.930;8.644;2022-09-20T01:04:58;5.03;;;2.50;;
7128;SDS011;3606;52.930;8.644;2022-09-20T01:07:24;7.50;;;2.70;;
7128;SDS011;3606;52.930;8.644;2022-09-20T01:09:51;9.70;;;2.47;;
7128;SDS011;3606;52.930;8.644;2022-09-20T01:12:17;6.83;;;2.90;;
7128;SDS011;3606;52.930;8.644;2022-09-20T01:14:46;8.23;;;2.57;;
7128;SDS011;3606;52.930;8.644;2022-09-20T01:17:13;9.47;;;2.70;;
7128;SDS011;3606;52.930;8.644;2022-09-20T01:22:25;7.10;;;2.50;;
7128;SDS011;3606;52.930;8.644;2022-09-20T01:24:59;7.93;;;2.60;;
7128;SDS011;3606;52.930;8.644;2022-09-20T01:27:45;13.30;;;3.30;;
7128;SDS011;3606;52.930;8.644;2022-09-20T01:30:20;9.80;;;2.53;;
7128;SDS011;3606;52.930;8.644;2022-09-20T01:32:56;15.80;;;3.53;;
7128;SDS011;3606;52.930;8.644;2022-09-20T01:35:35;8.03;;;2.47;;
7128;SDS011;3606;52.930;8.644;2022-09-20T01:46:15;6.87;;;2.50;;
7128;SDS011;3606;52.930;8.644;2022-09-20T01:48:46;10.67;;;2.40;;
7128;SDS011;3606;52.930;8.644;2022-09-20T01:51:26;9.93;;;2.47;;
7128;SDS011;3606;52.930;8.644;2022-09-20T01:59:59;7.40;;;2.40;;
7128;SDS011;3606;52.930;8.644;2022-09-20T02:08:15;7.30;;;2.37;;
7128;SDS011;3606;52.930;8.644;2022-09-20T02:16:43;6.40;;;2.30;;
7128;SDS011;3606;52.930;8.644;2022-09-20T02:25:23;13.20;;;2.70;;
7128;SDS011;3606;52.930;8.644;2022-09-20T02:33:27;7.80;;;2.30;;
7128;SDS011;3606;52.930;8.644;2022-09-20T02:41:52;16.43;;;3.30;;
7128;SDS011;3606;52.930;8.644;2022-09-20T02:44:47;11.83;;;2.57;;
7128;SDS011;3606;52.930;8.644;2022-09-20T02:47:31;8.57;;;2.53;;
7128;SDS011;3606;52.930;8.644;2022-09-20T02:55:17;6.17;;;2.20;;
7128;SDS011;3606;52.930;8.644;2022-09-20T03:00:32;12.93;;;2.73;;
7128;SDS011;3606;52.930;8.644;2022-09-20T03:06:13;6.70;;;2.43;;
7128;SDS011;3606;52.930;8.644;2022-09-20T03:17:36;13.17;;;2.57;;
7128;SDS011;3606;52.930;8.644;2022-09-20T03:26:51;11.50;;;2.50;;
7128;SDS011;3606;52.930;8.644;2022-09-20T03:32:07;8.80;;;2.47;;
7128;SDS011;3606;52.930;8.644;2022-09-20T03:43:03;11.43;;;2.80;;
7128;SDS011;3606;52.930;8.644;2022-09-20T03:54:37;11.87;;;3.17;;
7128;SDS011;3606;52.930;8.644;2022-09-20T04:00:01;10.93;;;2.53;;
7128;SDS011;3606;52.930;8.644;2022-09-20T04:02:35;10.30;;;3.17;;
7128;SDS011;3606;52.930;8.644;2022-09-20T04:05:18;8.53;;;3.00;;
7128;SDS011;3606;52.930;8.644;2022-09-20T04:10:44;9.90;;;2.90;;
7128;SDS011;3606;52.930;8.644;2022-09-20T04:21:24;8.27;;;2.70;;
7128;SDS011;3606;52.930;8.644;2022-09-20T04:26:53;5.60;;;2.20;;
7128;SDS011;3606;52.930;8.644;2022-09-20T04:32:01;8.17;;;2.90;;
7128;SDS011;3606;52.930;8.644;2022-09-20T04:34:46;11.20;;;2.90;;
7128;SDS011;3606;52.930;8.644;2022-09-20T04:37:37;6.30;;;3.17;;
7128;SDS011;3606;52.930;8.644;2022-09-20T04:40:12;8.60;;;2.67;;
7128;SDS011;3606;52.930;8.644;2022-09-20T04:43:07;11.60;;;2.90;;
7128;SDS011;3606;52.930;8.644;2022-09-20T04:48:38;10.37;;;2.80;;
7128;SDS011;3606;52.930;8.644;2022-09-20T05:05:33;10.47;;;2.70;;
7128;SDS011;3606;52.930;8.644;2022-09-20T05:11:29;7.10;;;2.97;;
7128;SDS011;3606;52.930;8.644;2022-09-20T05:30:24;17.03;;;3.07;;
7128;SDS011;3606;52.930;8.644;2022-09-20T05:38:55;8.70;;;2.40;;
7128;SDS011;3606;52.930;8.644;2022-09-20T05:41:56;6.43;;;2.47;;
7128;SDS011;3606;52.930;8.644;2022-09-20T05:44:49;13.37;;;3.07;;
7128;SDS011;3606;52.930;8.644;2022-09-20T05:58:27;8.33;;;2.43;;
7128;SDS011;3606;52.930;8.644;2022-09-20T06:01:10;5.40;;;2.60;;
7128;SDS011;3606;52.930;8.644;2022-09-20T06:03:51;7.37;;;3.00;;
7128;SDS011;3606;52.930;8.644;2022-09-20T06:06:27;7.10;;;2.60;;
7128;SDS011;3606;52.930;8.644;2022-09-20T06:12:15;5.07;;;2.33;;
7128;SDS011;3606;52.930;8.644;2022-09-20T06:20:09;9.90;;;2.43;;
7128;SDS011;3606;52.930;8.644;2022-09-20T06:22:41;7.57;;;2.40;;
7128;SDS011;3606;52.930;8.644;2022-09-20T06:25:15;11.73;;;2.80;;
7128;SDS011;3606;52.930;8.644;2022-09-20T06:30:32;10.10;;;3.50;;
7128;SDS011;3606;52.930;8.644;2022-09-20T06:39:07;6.47;;;2.70;;
7128;SDS011;3606;52.930;8.644;2022-09-20T06:42:13;9.47;;;2.50;;
7128;SDS011;3606;52.930;8.644;2022-09-20T06:44:39;12.17;;;2.97;;
7128;SDS011;3606;52.930;8.644;2022-09-20T06:47:10;4.93;;;2.40;;
7128;SDS011;3606;52.930;8.644;2022-09-20T06:49:37;7.73;;;2.33;;
7128;SDS011;3606;52.930;8.644;2022-09-20T06:52:06;6.00;;;2.33;;
7128;SDS011;3606;52.930;8.644;2022-09-20T06:54:36;6.53;;;2.40;;
7128;SDS011;3606;52.930;8.644;2022-09-20T06:57:03;8.50;;;2.57;;
7128;SDS011;3606;52.930;8.644;2022-09-20T06:59:30;7.67;;;2.50;;
7128;SDS011;3606;52.930;8.644;2022-09-20T07:01:56;10.53;;;3.40;;
7128;SDS011;3606;52.930;8.644;2022-09-20T07:04:22;4.50;;;2.10;;
7128;SDS011;3606;52.930;8.644;2022-09-20T07:06:48;7.10;;;2.40;;
7128;SDS011;3606;52.930;8.644;2022-09-20T07:09:15;7.30;;;2.53;;
7128;SDS011;3606;52.930;8.644;2022-09-20T07:11:41;8.93;;;2.50;;
7128;SDS011;3606;52.930;8.644;2022-09-20T07:14:10;7.07;;;2.20;;
7128;SDS011;3606;52.930;8.644;2022-09-20T07:16:36;7.07;;;2.77;;
7128;SDS011;3606;52.930;8.644;2022-09-20T07:19:02;6.67;;;2.47;;
7128;SDS011;3606;52.930;8.644;2022-09-20T07:21:29;8.10;;;2.70;;
7128;SDS011;3606;52.930;8.644;2022-09-20T07:23:55;10.07;;;2.70;;
7128;SDS011;3606;52.930;8.644;2022-09-20T07:26:25;7.27;;;2.50;;
7128;SDS011;3606;52.930;8.644;2022-09-20T07:28:53;5.77;;;2.37;;
7128;SDS011;3606;52.930;8.644;2022-09-20T07:31:20;8.13;;;2.27;;
7128;SDS011;3606;52.930;8.644;2022-09-20T07:33:48;7.27;;;2.77;;
7128;SDS011;3606;52.930;8.644;2022-09-20T07:36:14;8.47;;;2.20;;
7128;SDS011;3606;52.930;8.644;2022-09-20T07:38:47;3.20;;;2.10;;
7128;SDS011;3606;52.930;8.644;2022-09-20T07:41:14;4.53;;;2.53;;
7128;SDS011;3606;52.930;8.644;2022-09-20T07:43:43;8.17;;;2.80;;
7128;SDS011;3606;52.930;8.644;2022-09-20T07:46:09;5.97;;;2.13;;
7128;SDS011;3606;52.930;8.644;2022-09-20T07:48:37;8.53;;;2.40;;
7128;SDS011;3606;52.930;8.644;2022-09-20T07:51:05;11.07;;;2.07;;
7128;SDS011;3606;52.930;8.644;2022-09-20T07:53:32;6.37;;;2.40;;
7128;SDS011;3606;52.930;8.644;2022-09-20T07:58:29;6.47;;;2.30;;
7128;SDS011;3606;52.930;8.644;2022-09-20T08:00:58;6.97;;;1.73;;
7128;SDS011;3606;52.930;8.644;2022-09-20T08:03:25;3.80;;;1.87;;
7128;SDS011;3606;52.930;8.644;2022-09-20T08:06:26;4.13;;;2.10;;
7128;SDS011;3606;52.930;8.644;2022-09-20T08:08:45;5.17;;;2.30;;
7128;SDS011;3606;52.930;8.644;2022-09-20T08:11:12;6.90;;;2.20;;
7128;SDS011;3606;52.930;8.644;2022-09-20T08:13:41;3.87;;;1.90;;
7128;SDS011;3606;52.930;8.644;2022-09-20T08:16:11;3.90;;;1.60;;
7128;SDS011;3606;52.930;8.644;2022-09-20T08:18:38;4.87;;;2.37;;
7128;SDS011;3606;52.930;8.644;2022-09-20T08:21:10;5.17;;;1.77;;
7128;SDS011;3606;52.930;8.644;2022-09-20T08:23:37;3.43;;;1.63;;
7128;SDS011;3606;52.930;8.644;2022-09-20T08:26:04;4.13;;;1.80;;
7128;SDS011;3606;52.930;8.644;2022-09-20T08:28:31;2.90;;;1.30;;
7128;SDS011;3606;52.930;8.644;2022-09-20T08:31:08;5.37;;;1.63;;
7128;SDS011;3606;52.930;8.644;2022-09-20T08:33:35;9.53;;;1.57;;
7128;SDS011;3606;52.930;8.644;2022-09-20T08:36:02;1.97;;;1.23;;
7128;SDS011;3606;52.930;8.644;2022-09-20T08:38:29;3.53;;;1.37;;
7128;SDS011;3606;52.930;8.644;2022-09-20T08:40:57;3.20;;;1.80;;
7128;SDS011;3606;52.930;8.644;2022-09-20T08:43:27;4.60;;;1.77;;
7128;SDS011;3606;52.930;8.644;2022-09-20T08:45:58;3.17;;;1.60;;
7128;SDS011;3606;52.930;8.644;2022-09-20T08:48:27;3.10;;;1.57;;
7128;SDS011;3606;52.930;8.644;2022-09-20T08:51:02;5.43;;;2.00;;
7128;SDS011;3606;52.930;8.644;2022-09-20T08:53:30;3.33;;;1.63;;
7128;SDS011;3606;52.930;8.644;2022-09-20T08:55:56;2.60;;;1.77;;
7128;SDS011;3606;52.930;8.644;2022-09-20T08:58:23;3.60;;;2.00;;
7128;SDS011;3606;52.930;8.644;2022-09-20T09:00:50;3.13;;;1.50;;
7128;SDS011;3606;52.930;8.644;2022-09-20T09:03:16;4.97;;;1.90;;
7128;SDS011;3606;52.930;8.644;2022-09-20T09:05:52;5.97;;;2.17;;
7128;SDS011;3606;52.930;8.644;2022-09-20T09:08:20;3.67;;;1.77;;
7128;SDS011;3606;52.930;8.644;2022-09-20T09:10:51;4.17;;;2.00;;
7128;SDS011;3606;52.930;8.644;2022-09-20T09:13:41;2.23;;;1.50;;
7128;SDS011;3606;52.930;8.644;2022-09-20T09:16:18;5.27;;;1.70;;
7128;SDS011;3606;52.930;8.644;2022-09-20T09:18:45;5.57;;;1.80;;
7128;SDS011;3606;52.930;8.644;2022-09-20T09:21:20;4.27;;;1.80;;
7128;SDS011;3606;52.930;8.644;2022-09-20T09:26:25;6.53;;;1.97;;
7128;SDS011;3606;52.930;8.644;2022-09-20T09:31:49;3.20;;;1.50;;
7128;SDS011;3606;52.930;8.644;2022-09-20T09:34:21;3.20;;;1.53;;
7128;SDS011;3606;52.930;8.644;2022-09-20T09:36:51;4.10;;;1.60;;
7128;SDS011;3606;52.930;8.644;2022-09-20T09:39:28;2.90;;;1.60;;
7128;SDS011;3606;52.930;8.644;2022-09-20T09:41:55;3.70;;;1.37;;
7128;SDS011;3606;52.930;8.644;2022-09-20T09:44:29;4.17;;;1.67;;
7128;SDS011;3606;52.930;8.644;2022-09-20T09:46:58;3.47;;;2.23;;
7128;SDS011;3606;52.930;8.644;2022-09-20T09:49:25;4.22;;;1.83;;
7128;SDS011;3606;52.930;8.644;2022-09-20T09:52:11;3.30;;;1.73;;
7128;SDS011;3606;52.930;8.644;2022-09-20T09:54:48;3.77;;;1.73;;
7128;SDS011;3606;52.930;8.644;2022-09-20T09:57:34;2.73;;;1.50;;
7128;SDS011;3606;52.930;8.644;2022-09-20T10:02:58;4.33;;;1.20;;
7128;SDS011;3606;52.930;8.644;2022-09-20T10:05:38;1.63;;;1.00;;
7128;SDS011;3606;52.930;8.644;2022-09-20T10:19:35;4.47;;;2.20;;
7128;SDS011;3606;52.930;8.644;2022-09-20T10:22:36;6.97;;;1.70;;
7128;SDS011;3606;52.930;8.644;2022-09-20T10:25:16;8.07;;;1.60;;
7128;SDS011;3606;52.930;8.644;2022-09-20T10:28:05;3.00;;;1.67;;
7128;SDS011;3606;52.930;8.644;2022-09-20T10:31:04;6.00;;;1.67;;
7128;SDS011;3606;52.930;8.644;2022-09-20T10:33:47;2.73;;;1.40;;
7128;SDS011;3606;52.930;8.644;2022-09-20T10:36:48;4.23;;;1.27;;
7128;SDS011;3606;52.930;8.644;2022-09-20T10:39:38;2.60;;;1.60;;
7128;SDS011;3606;52.930;8.644;2022-09-20T10:48:17;2.10;;;1.47;;
7128;SDS011;3606;52.930;8.644;2022-09-20T10:50:58;6.00;;;2.00;;
7128;SDS011;3606;52.930;8.644;2022-09-20T10:53:42;1.80;;;1.30;;
7128;SDS011;3606;52.930;8.644;2022-09-20T10:56:28;2.23;;;1.33;;
7128;SDS011;3606;52.930;8.644;2022-09-20T11:07:15;1.50;;;0.97;;
7128;SDS011;3606;52.930;8.644;2022-09-20T11:10:01;2.13;;;1.13;;
7128;SDS011;3606;52.930;8.644;2022-09-20T11:12:50;2.10;;;1.07;;
7128;SDS011;3606;52.930;8.644;2022-09-20T11:15:37;1.93;;;0.80;;
7128;SDS011;3606;52.930;8.644;2022-09-20T11:18:38;1.00;;;0.77;;
7128;SDS011;3606;52.930;8.644;2022-09-20T11:21:17;1.20;;;0.90;;
7128;SDS011;3606;52.930;8.644;2022-09-20T11:26:38;3.40;;;1.00;;
7128;SDS011;3606;52.930;8.644;2022-09-20T11:29:20;1.87;;;0.80;;
7128;SDS011;3606;52.930;8.644;2022-09-20T11:31:53;1.40;;;0.87;;
7128;SDS011;3606;52.930;8.644;2022-09-20T11:34:26;3.27;;;1.40;;
7128;SDS011;3606;52.930;8.644;2022-09-20T11:36:55;2.80;;;1.47;;
7128;SDS011;3606;52.930;8.644;2022-09-20T11:41:54;3.30;;;1.20;;
7128;SDS011;3606;52.930;8.644;2022-09-20T11:44:23;3.07;;;1.63;;
7128;SDS011;3606;52.930;8.644;2022-09-20T11:46:51;1.53;;;1.20;;
7128;SDS011;3606;52.930;8.644;2022-09-20T11:52:03;2.20;;;1.50;;
7128;SDS011;3606;52.930;8.644;2022-09-20T11:57:19;1.90;;;1.40;;
7128;SDS011;3606;52.930;8.644;2022-09-20T11:59:51;2.90;;;1.50;;
7128;SDS011;3606;52.930;8.644;2022-09-20T12:05:05;2.77;;;1.27;;
7128;SDS011;3606;52.930;8.644;2022-09-20T12:07:41;2.63;;;1.37;;
7128;SDS011;3606;52.930;8.644;2022-09-20T12:10:27;2.50;;;1.57;;
7128;SDS011;3606;52.930;8.644;2022-09-20T12:12:59;7.23;;;3.43;;
7128;SDS011;3606;52.930;8.644;2022-09-20T12:28:46;12.03;;;8.20;;
7128;SDS011;3606;52.930;8.644;2022-09-20T12:39:20;1.63;;;1.07;;
7128;SDS011;3606;52.930;8.644;2022-09-20T12:47:05;5.60;;;3.30;;
7128;SDS011;3606;52.930;8.644;2022-09-20T12:53:09;2.87;;;1.40;;
7128;SDS011;3606;52.930;8.644;2022-09-20T13:00:39;1.83;;;1.17;;
7128;SDS011;3606;52.930;8.644;2022-09-20T13:19:05;4.20;;;1.50;;
7128;SDS011;3606;52.930;8.644;2022-09-20T13:21:54;2.53;;;1.67;;
7128;SDS011;3606;52.930;8.644;2022-09-20T13:24:24;2.70;;;1.67;;
7128;SDS011;3606;52.930;8.644;2022-09-20T13:26:52;2.23;;;1.40;;
7128;SDS011;3606;52.930;8.644;2022-09-20T13:29:21;2.60;;;1.20;;
7128;SDS011;3606;52.930;8.644;2022-09-20T13:32:21;3.73;;;1.67;;
7128;SDS011;3606;52.930;8.644;2022-09-20T13:37:37;2.83;;;1.60;;
7128;SDS011;3606;52.930;8.644;2022-09-20T13:40:30;2.53;;;1.37;;
7128;SDS011;3606;52.930;8.644;2022-09-20T13:45:53;2.43;;;1.20;;
7128;SDS011;3606;52.930;8.644;2022-09-20T13:48:28;3.17;;;1.53;;
7128;SDS011;3606;52.930;8.644;2022-09-20T13:50:55;2.63;;;1.10;;
7128;SDS011;3606;52.930;8.644;2022-09-20T13:53:21;2.97;;;1.50;;
7128;SDS011;3606;52.930;8.644;2022-09-20T13:55:48;3.30;;;1.43;;
7128;SDS011;3606;52.930;8.644;2022-09-20T13:58:28;2.37;;;1.40;;
7128;SDS011;3606;52.930;8.644;2022-09-20T14:00:57;2.50;;;1.27;;
7128;SDS011;3606;52.930;8.644;2022-09-20T14:03:28;3.77;;;1.57;;
7128;SDS011;3606;52.930;8.644;2022-09-20T14:06:00;2.73;;;1.20;;
7128;SDS011;3606;52.930;8.644;2022-09-20T14:08:36;1.93;;;1.17;;
7128;SDS011;3606;52.930;8.644;2022-09-20T14:11:07;4.87;;;1.33;;
7128;SDS011;3606;52.930;8.644;2022-09-20T14:13:40;3.70;;;1.37;;
7128;SDS011;3606;52.930;8.644;2022-09-20T14:16:08;1.80;;;1.10;;
7128;SDS011;3606;52.930;8.644;2022-09-20T14:18:35;1.83;;;1.20;;
7128;SDS011;3606;52.930;8.644;2022-09-20T14:21:04;6.37;;;1.20;;
7128;SDS011;3606;52.930;8.644;2022-09-20T14:23:32;2.60;;;1.43;;
7128;SDS011;3606;52.930;8.644;2022-09-20T14:26:27;1.87;;;1.20;;
7128;SDS011;3606;52.930;8.644;2022-09-20T14:29:18;1.37;;;1.00;;
7128;SDS011;3606;52.930;8.644;2022-09-20T14:31:53;2.33;;;1.30;;
7128;SDS011;3606;52.930;8.644;2022-09-20T14:34:19;2.47;;;1.60;;
7128;SDS011;3606;52.930;8.644;2022-09-20T14:36:45;3.77;;;1.40;;
7128;SDS011;3606;52.930;8.644;2022-09-20T14:39:15;3.03;;;1.43;;
7128;SDS011;3606;52.930;8.644;2022-09-20T14:41:46;4.53;;;1.30;;
7128;SDS011;3606;52.930;8.644;2022-09-20T14:44:18;2.07;;;1.00;;
7128;SDS011;3606;52.930;8.644;2022-09-20T14:46:46;2.87;;;1.73;;
7128;SDS011;3606;52.930;8.644;2022-09-20T14:49:19;3.17;;;1.50;;
7128;SDS011;3606;52.930;8.644;2022-09-20T14:54:59;3.47;;;2.00;;
7128;SDS011;3606;52.930;8.644;2022-09-20T14:57:34;6.03;;;2.43;;
7128;SDS011;3606;52.930;8.644;2022-09-20T15:00:03;5.23;;;2.20;;
7128;SDS011;3606;52.930;8.644;2022-09-20T15:02:33;6.73;;;2.37;;
7128;SDS011;3606;52.930;8.644;2022-09-20T15:05:00;4.83;;;1.70;;
7128;SDS011;3606;52.930;8.644;2022-09-20T15:07:26;5.33;;;1.53;;
7128;SDS011;3606;52.930;8.644;2022-09-20T15:09:52;4.27;;;2.00;;
7128;SDS011;3606;52.930;8.644;2022-09-20T15:12:18;2.77;;;1.70;;
7128;SDS011;3606;52.930;8.644;2022-09-20T15:14:45;6.77;;;1.90;;
7128;SDS011;3606;52.930;8.644;2022-09-20T15:17:16;4.13;;;1.93;;
7128;SDS011;3606;52.930;8.644;2022-09-20T15:19:43;3.80;;;1.67;;
7128;SDS011;3606;52.930;8.644;2022-09-20T15:22:09;4.00;;;1.50;;
7128;SDS011;3606;52.930;8.644;2022-09-20T15:24:35;1.97;;;1.33;;
7128;SDS011;3606;52.930;8.644;2022-09-20T15:27:01;4.23;;;1.63;;
7128;SDS011;3606;52.930;8.644;2022-09-20T15:29:27;4.17;;;2.00;;
7128;SDS011;3606;52.930;8.644;2022-09-20T15:31:52;3.97;;;1.50;;
7128;SDS011;3606;52.930;8.644;2022-09-20T15:34:18;2.53;;;1.30;;
7128;SDS011;3606;52.930;8.644;2022-09-20T15:36:43;4.53;;;1.37;;
7128;SDS011;3606;52.930;8.644;2022-09-20T15:39:09;1.70;;;1.60;;
7128;SDS011;3606;52.930;8.644;2022-09-20T15:41:36;3.37;;;1.63;;
7128;SDS011;3606;52.930;8.644;2022-09-20T15:44:05;4.90;;;1.60;;
7128;SDS011;3606;52.930;8.644;2022-09-20T15:46:31;3.37;;;1.67;;
7128;SDS011;3606;52.930;8.644;2022-09-20T15:49:00;4.87;;;1.80;;
7128;SDS011;3606;52.930;8.644;2022-09-20T15:51:27;4.23;;;1.43;;
7128;SDS011;3606;52.930;8.644;2022-09-20T15:53:58;4.70;;;1.53;;
7128;SDS011;3606;52.930;8.644;2022-09-20T15:56:29;3.67;;;1.50;;
7128;SDS011;3606;52.930;8.644;2022-09-20T15:58:57;3.00;;;1.13;;
7128;SDS011;3606;52.930;8.644;2022-09-20T16:01:25;2.83;;;1.33;;
7128;SDS011;3606;52.930;8.644;2022-09-20T16:03:52;3.33;;;1.77;;
7128;SDS011;3606;52.930;8.644;2022-09-20T16:06:19;1.67;;;1.23;;
7128;SDS011;3606;52.930;8.644;2022-09-20T16:08:45;5.03;;;1.90;;
7128;SDS011;3606;52.930;8.644;2022-09-20T16:11:12;4.80;;;2.00;;
7128;SDS011;3606;52.930;8.644;2022-09-20T16:13:39;4.13;;;1.90;;
7128;SDS011;3606;52.930;8.644;2022-09-20T16:16:05;4.77;;;2.40;;
7128;SDS011;3606;52.930;8.644;2022-09-20T16:18:34;3.33;;;2.30;;
7128;SDS011;3606;52.930;8.644;2022-09-20T16:21:19;3.10;;;1.80;;
7128;SDS011;3606;52.930;8.644;2022-09-20T16:23:50;1.93;;;1.50;;
7128;SDS011;3606;52.930;8.644;2022-09-20T16:26:18;2.57;;;1.53;;
7128;SDS011;3606;52.930;8.644;2022-09-20T16:28:45;4.93;;;2.07;;
7128;SDS011;3606;52.930;8.644;2022-09-20T16:34:04;3.00;;;2.00;;
7128;SDS011;3606;52.930;8.644;2022-09-20T16:36:31;3.23;;;1.80;;
7128;SDS011;3606;52.930;8.644;2022-09-20T16:38:57;3.47;;;1.80;;
7128;SDS011;3606;52.930;8.644;2022-09-20T16:41:23;4.43;;;2.23;;
7128;SDS011;3606;52.930;8.644;2022-09-20T16:43:51;2.70;;;1.80;;
7128;SDS011;3606;52.930;8.644;2022-09-20T16:46:21;3.90;;;2.00;;
7128;SDS011;3606;52.930;8.644;2022-09-20T16:48:49;2.07;;;1.73;;
7128;SDS011;3606;52.930;8.644;2022-09-20T16:51:17;3.57;;;1.60;;
7128;SDS011;3606;52.930;8.644;2022-09-20T16:53:42;3.87;;;2.37;;
7128;SDS011;3606;52.930;8.644;2022-09-20T16:56:18;5.17;;;3.33;;
7128;SDS011;3606;52.930;8.644;2022-09-20T16:58:46;8.50;;;2.87;;
7128;SDS011;3606;52.930;8.644;2022-09-20T17:01:12;4.17;;;2.20;;
7128;SDS011;3606;52.930;8.644;2022-09-20T17:03:38;3.67;;;2.20;;
7128;SDS011;3606;52.930;8.644;2022-09-20T17:06:05;6.87;;;2.20;;
7128;SDS011;3606;52.930;8.644;2022-09-20T17:08:32;4.90;;;2.00;;
7128;SDS011;3606;52.930;8.644;2022-09-20T17:11:09;5.33;;;2.50;;
7128;SDS011;3606;52.930;8.644;2022-09-20T17:13:38;3.93;;;2.43;;
7128;SDS011;3606;52.930;8.644;2022-09-20T17:16:09;3.67;;;1.63;;
7128;SDS011;3606;52.930;8.644;2022-09-20T17:18:42;2.10;;;1.90;;
7128;SDS011;3606;52.930;8.644;2022-09-20T17:21:08;2.30;;;1.93;;
7128;SDS011;3606;52.930;8.644;2022-09-20T17:23:40;3.23;;;2.13;;
7128;SDS011;3606;52.930;8.644;2022-09-20T17:26:28;3.37;;;2.47;;
7128;SDS011;3606;52.930;8.644;2022-09-20T17:29:01;4.80;;;2.50;;
7128;SDS011;3606;52.930;8.644;2022-09-20T17:31:30;3.27;;;2.40;;
7128;SDS011;3606;52.930;8.644;2022-09-20T17:34:00;3.53;;;3.10;;
7128;SDS011;3606;52.930;8.644;2022-09-20T17:36:35;4.50;;;2.90;;
7128;SDS011;3606;52.930;8.644;2022-09-20T17:39:04;4.13;;;3.30;;
7128;SDS011;3606;52.930;8.644;2022-09-20T17:41:31;7.57;;;4.87;;
7128;SDS011;3606;52.930;8.644;2022-09-20T17:44:01;12.67;;;6.77;;
7128;SDS011;3606;52.930;8.644;2022-09-20T17:46:32;11.63;;;7.13;;
7128;SDS011;3606;52.930;8.644;2022-09-20T17:49:00;13.67;;;7.77;;
7128;SDS011;3606;52.930;8.644;2022-09-20T17:51:28;11.10;;;7.23;;
7128;SDS011;3606;52.930;8.644;2022-09-20T17:53:55;11.67;;;6.63;;
7128;SDS011;3606;52.930;8.644;2022-09-20T17:56:21;7.93;;;5.90;;
7128;SDS011;3606;52.930;8.644;2022-09-20T17:58:48;11.17;;;6.80;;
7128;SDS011;3606;52.930;8.644;2022-09-20T18:01:15;9.70;;;6.37;;
7128;SDS011;3606;52.930;8.644;2022-09-20T18:03:43;8.27;;;6.30;;
7128;SDS011;3606;52.930;8.644;2022-09-20T18:08:40;8.37;;;5.73;;
7128;SDS011;3606;52.930;8.644;2022-09-20T18:11:10;7.77;;;5.73;;
7128;SDS011;3606;52.930;8.644;2022-09-20T18:13:36;8.00;;;6.40;;
7128;SDS011;3606;52.930;8.644;2022-09-20T18:16:02;7.03;;;4.93;;
7128;SDS011;3606;52.930;8.644;2022-09-20T18:18:29;5.10;;;3.80;;
7128;SDS011;3606;52.930;8.644;2022-09-20T18:20:56;2.90;;;2.60;;
7128;SDS011;3606;52.930;8.644;2022-09-20T18:23:22;3.57;;;2.53;;
7128;SDS011;3606;52.930;8.644;2022-09-20T18:25:47;2.70;;;2.30;;
7128;SDS011;3606;52.930;8.644;2022-09-20T18:28:31;3.00;;;2.53;;
7128;SDS011;3606;52.930;8.644;2022-09-20T18:30:58;5.50;;;2.90;;
7128;SDS011;3606;52.930;8.644;2022-09-20T18:33:30;7.13;;;2.90;;
7128;SDS011;3606;52.930;8.644;2022-09-20T18:36:03;4.33;;;2.60;;
7128;SDS011;3606;52.930;8.644;2022-09-20T18:38:30;3.40;;;2.87;;
7128;SDS011;3606;52.930;8.644;2022-09-20T18:40:57;4.07;;;3.20;;
7128;SDS011;3606;52.930;8.644;2022-09-20T18:43:27;9.57;;;5.47;;
7128;SDS011;3606;52.930;8.644;2022-09-20T18:45:54;44.63;;;21.97;;
7128;SDS011;3606;52.930;8.644;2022-09-20T18:48:21;15.07;;;8.93;;
7128;SDS011;3606;52.930;8.644;2022-09-20T18:51:21;7.67;;;4.30;;
7128;SDS011;3606;52.930;8.644;2022-09-20T18:53:40;9.40;;;5.10;;
7128;SDS011;3606;52.930;8.644;2022-09-20T18:59:01;10.70;;;6.30;;
7128;SDS011;3606;52.930;8.644;2022-09-20T19:07:02;7.67;;;4.13;;
7128;SDS011;3606;52.930;8.644;2022-09-20T19:12:24;3.73;;;2.83;;
7128;SDS011;3606;52.930;8.644;2022-09-20T19:15:00;7.50;;;3.00;;
7128;SDS011;3606;52.930;8.644;2022-09-20T19:22:56;6.80;;;3.23;;
7128;SDS011;3606;52.930;8.644;2022-09-20T19:28:10;6.23;;;3.63;;
7128;SDS011;3606;52.930;8.644;2022-09-20T19:30:37;6.07;;;4.77;;
7128;SDS011;3606;52.930;8.644;2022-09-20T19:33:04;8.70;;;5.87;;
7128;SDS011;3606;52.930;8.644;2022-09-20T19:35:37;6.90;;;4.50;;
7128;SDS011;3606;52.930;8.644;2022-09-20T19:38:12;5.30;;;3.23;;
7128;SDS011;3606;52.930;8.644;2022-09-20T19:51:44;5.00;;;2.90;;
7128;SDS011;3606;52.930;8.644;2022-09-20T19:54:11;4.30;;;2.60;;
7128;SDS011;3606;52.930;8.644;2022-09-20T19:56:45;3.73;;;2.53;;
7128;SDS011;3606;52.930;8.644;2022-09-20T19:59:20;4.53;;;2.80;;
7128;SDS011;3606;52.930;8.644;2022-09-20T20:01:47;3.07;;;2.77;;
7128;SDS011;3606;52.930;8.644;2022-09-20T20:04:14;2.97;;;2.60;;
7128;SDS011;3606;52.930;8.644;2022-09-20T20:07:27;3.20;;;2.90;;
7128;SDS011;3606;52.930;8.644;2022-09-20T20:12:18;3.43;;;2.60;;
7128;SDS011;3606;52.930;8.644;2022-09-20T20:17:59;6.60;;;2.97;;
7128;SDS011;3606;52.930;8.644;2022-09-20T20:20:44;6.53;;;3.10;;
7128;SDS011;3606;52.930;8.644;2022-09-20T20:25:53;4.00;;;3.33;;
7128;SDS011;3606;52.930;8.644;2022-09-20T20:28:30;6.73;;;4.67;;
7128;SDS011;3606;52.930;8.644;2022-09-20T20:30:56;7.90;;;5.67;;
7128;SDS011;3606;52.930;8.644;2022-09-20T20:33:26;7.63;;;5.20;;
7128;SDS011;3606;52.930;8.644;2022-09-20T20:35:58;5.43;;;3.80;;
7128;SDS011;3606;52.930;8.644;2022-09-20T20:38:25;4.40;;;3.33;;
7128;SDS011;3606;52.930;8.644;2022-09-20T20:43:28;3.97;;;2.43;;
7128;SDS011;3606;52.930;8.644;2022-09-20T20:45:55;4.90;;;2.60;;
7128;SDS011;3606;52.930;8.644;2022-09-20T20:48:20;3.87;;;2.67;;
7128;SDS011;3606;52.930;8.644;2022-09-20T20:50:46;3.63;;;3.17;;
7128;SDS011;3606;52.930;8.644;2022-09-20T20:53:12;6.23;;;3.23;;
7128;SDS011;3606;52.930;8.644;2022-09-20T20:55:38;3.70;;;2.90;;
7128;SDS011;3606;52.930;8.644;2022-09-20T20:58:05;5.03;;;2.67;;
7128;SDS011;3606;52.930;8.644;2022-09-20T21:00:31;5.33;;;2.90;;
7128;SDS011;3606;52.930;8.644;2022-09-20T21:02:57;2.97;;;2.73;;
7128;SDS011;3606;52.930;8.644;2022-09-20T21:05:24;5.23;;;3.47;;
7128;SDS011;3606;52.930;8.644;2022-09-20T21:07:51;3.63;;;3.20;;
7128;SDS011;3606;52.930;8.644;2022-09-20T21:10:17;3.23;;;2.73;;
7128;SDS011;3606;52.930;8.644;2022-09-20T21:12:43;7.70;;;3.60;;
7128;SDS011;3606;52.930;8.644;2022-09-20T21:15:09;3.07;;;2.77;;
7128;SDS011;3606;52.930;8.644;2022-09-20T21:17:35;3.67;;;3.10;;
7128;SDS011;3606;52.930;8.644;2022-09-20T21:20:01;4.43;;;3.00;;
7128;SDS011;3606;52.930;8.644;2022-09-20T21:22:28;6.33;;;3.17;;
7128;SDS011;3606;52.930;8.644;2022-09-20T21:24:53;6.37;;;2.63;;